createdAt,value
2023-03-01T00:00:02.736Z,31.17
2023-03-01T00:01:08.733Z,31.23
2023-03-01T00:02:14.185Z,30.73
2023-03-01T00:04:40.077Z,31.33
2023-03-01T00:05:50.256Z,28.63
2023-03-01T00:06:56.626Z,31.10
2023-03-01T00:07:59.772Z,30.27
2023-03-01T00:09:01.989Z,31.65
2023-03-01T00:10:06.112Z,29.95
2023-03-01T00:11:29.271Z,32.20
2023-03-01T00:12:33.586Z,30.17
2023-03-01T00:13:40.060Z,29.75
2023-03-01T00:14:44.457Z,29.88
2023-03-01T00:15:50.698Z,27.00
2023-03-01T00:16:55.203Z,31.70
2023-03-01T00:17:58.392Z,29.17
2023-03-01T00:19:02.017Z,29.92
2023-03-01T00:20:05.460Z,29.75
2023-03-01T00:21:08.913Z,27.48
2023-03-01T00:22:11.517Z,27.10
2023-03-01T00:23:15.528Z,27.20
2023-03-01T00:24:18.582Z,25.60
2023-03-01T00:25:21.371Z,28.38
2023-03-01T00:26:25.273Z,26.40
2023-03-01T00:27:28.865Z,26.17
2023-03-01T00:28:33.269Z,27.27
2023-03-01T00:29:36.176Z,29.85
2023-03-01T00:30:38.644Z,30.30
2023-03-01T00:31:41.034Z,27.70
2023-03-01T00:32:43.454Z,31.33
2023-03-01T00:33:46.667Z,29.40
2023-03-01T00:34:57.932Z,25.85
2023-03-01T00:36:13.543Z,25.52
2023-03-01T00:37:15.380Z,23.40
2023-03-01T00:38:22.973Z,24.15
2023-03-01T00:39:24.915Z,26.73
2023-03-01T00:40:29.349Z,27.15
2023-03-01T00:41:32.356Z,27.75
2023-03-01T00:42:34.719Z,28.92
2023-03-01T00:43:44.581Z,27.00
2023-03-01T00:44:46.922Z,27.65
2023-03-01T00:45:51.642Z,26.50
2023-03-01T00:46:54.698Z,27.30
2023-03-01T00:48:03.558Z,27.30
2023-03-01T00:49:07.204Z,27.33
2023-03-01T00:50:12.211Z,26.42
2023-03-01T00:51:26.972Z,26.25
2023-03-01T00:52:29.544Z,25.33
2023-03-01T00:53:32.212Z,25.58
2023-03-01T00:54:34.853Z,25.92
2023-03-01T00:55:41.031Z,27.10
2023-03-01T00:56:44.351Z,27.42
2023-03-01T00:57:48.328Z,26.15
2023-03-01T00:58:52.022Z,26.25
2023-03-01T00:59:59.306Z,27.95
2023-03-01T01:01:24.694Z,28.35
2023-03-01T01:02:31.313Z,26.95
2023-03-01T01:03:34.120Z,27.75
2023-03-01T01:04:37.342Z,24.33
2023-03-01T01:05:39.507Z,25.85
2023-03-01T01:06:47.435Z,25.77
2023-03-01T01:07:50.079Z,23.98
2023-03-01T01:08:56.731Z,23.17
2023-03-01T01:09:59.814Z,24.33
2023-03-01T01:11:03.771Z,25.88
2023-03-01T01:12:06.000Z,24.60
2023-03-01T01:13:09.840Z,23.13
2023-03-01T01:14:12.397Z,23.80
2023-03-01T01:15:18.911Z,23.23
2023-03-01T01:16:23.952Z,22.90
2023-03-01T01:17:36.296Z,22.20
2023-03-01T01:18:39.258Z,24.40
2023-03-01T01:19:42.236Z,22.83
2023-03-01T01:20:48.388Z,24.20
2023-03-01T01:21:50.605Z,23.23
2023-03-01T01:22:57.314Z,22.23
2023-03-01T01:24:01.165Z,25.40
2023-03-01T01:25:11.284Z,24.88
2023-03-01T01:26:16.905Z,24.23
2023-03-01T01:27:19.183Z,26.33
2023-03-01T01:28:24.661Z,25.05
2023-03-01T01:29:32.572Z,24.52
2023-03-01T01:30:34.910Z,25.63
2023-03-01T01:31:42.034Z,25.67
2023-03-01T01:32:48.831Z,26.33
2023-03-01T01:33:51.655Z,24.80
2023-03-01T01:34:59.859Z,25.35
2023-03-01T01:36:08.052Z,26.70
2023-03-01T01:37:10.337Z,25.88
2023-03-01T01:38:14.128Z,26.05
2023-03-01T01:39:17.446Z,24.98
2023-03-01T01:40:21.365Z,26.92
2023-03-01T01:41:27.654Z,25.10
2023-03-01T01:42:31.886Z,26.77
2023-03-01T01:45:48.816Z,24.90
2023-03-01T01:47:02.329Z,24.70
2023-03-01T01:48:16.298Z,25.00
2023-03-01T01:49:45.064Z,26.25
2023-03-01T01:50:57.175Z,27.95
2023-03-01T01:52:28.224Z,30.23
2023-03-01T01:53:30.657Z,28.45
2023-03-01T01:55:11.947Z,30.05
2023-03-01T01:56:15.838Z,26.52
2023-03-01T01:57:24.685Z,27.00
2023-03-01T01:58:32.480Z,27.13
2023-03-01T01:59:38.779Z,25.58
2023-03-01T02:00:41.950Z,24.02
2023-03-01T02:01:44.926Z,26.27
2023-03-01T02:02:51.068Z,25.17
2023-03-01T02:03:53.348Z,27.02
2023-03-01T02:05:19.696Z,28.10
2023-03-01T02:06:47.584Z,25.90
2023-03-01T02:07:52.332Z,24.70
2023-03-01T02:08:56.804Z,25.58
2023-03-01T02:10:00.170Z,25.25
2023-03-01T02:11:06.298Z,24.67
2023-03-01T02:12:12.947Z,24.00
2023-03-01T02:13:15.921Z,25.20
2023-03-01T02:14:19.124Z,26.20
2023-03-01T02:15:21.392Z,26.20
2023-03-01T02:16:24.166Z,25.20
2023-03-01T02:17:29.465Z,24.50
2023-03-01T02:18:34.027Z,24.58
2023-03-01T02:20:13.746Z,23.92
2023-03-01T02:21:43.449Z,24.42
2023-03-01T02:22:50.996Z,25.35
2023-03-01T02:23:56.976Z,27.70
2023-03-01T02:25:07.132Z,24.20
2023-03-01T02:26:35.760Z,26.15
2023-03-01T02:28:10.929Z,25.20
2023-03-01T02:29:12.840Z,25.52
2023-03-01T02:30:14.753Z,25.65
2023-03-01T02:31:42.645Z,27.45
2023-03-01T02:32:49.119Z,24.73
2023-03-01T02:33:54.193Z,27.30
2023-03-01T02:34:57.893Z,25.95
2023-03-01T02:36:05.545Z,25.90
2023-03-01T02:37:23.577Z,26.80
2023-03-01T02:38:26.582Z,25.40
2023-03-01T02:39:43.464Z,29.08
2023-03-01T02:40:45.814Z,26.70
2023-03-01T02:41:55.140Z,27.55
2023-03-01T02:43:00.587Z,27.35
2023-03-01T02:44:03.344Z,26.77
2023-03-01T02:45:07.864Z,27.42
2023-03-01T02:46:20.007Z,26.90
2023-03-01T02:47:25.982Z,26.60
2023-03-01T02:48:32.305Z,27.38
2023-03-01T02:49:37.251Z,25.90
2023-03-01T02:50:55.271Z,28.77
2023-03-01T02:52:15.610Z,25.13
2023-03-01T02:53:29.979Z,25.40
2023-03-01T02:54:43.770Z,27.48
2023-03-01T02:55:46.200Z,27.60
2023-03-01T02:56:53.292Z,27.92
2023-03-01T02:57:58.003Z,27.23
2023-03-01T02:59:02.194Z,26.45
2023-03-01T03:00:21.217Z,26.67
2023-03-01T03:01:25.426Z,27.70
2023-03-01T03:02:40.068Z,28.30
2023-03-01T03:03:44.544Z,26.05
2023-03-01T03:04:47.249Z,25.80
2023-03-01T03:05:52.000Z,25.42
2023-03-01T03:06:55.838Z,25.08
2023-03-01T03:08:04.361Z,24.80
2023-03-01T03:09:06.713Z,25.20
2023-03-01T03:10:17.508Z,26.08
2023-03-01T03:11:22.121Z,25.45
2023-03-01T03:12:26.106Z,25.33
2023-03-01T03:13:30.753Z,26.45
2023-03-01T03:14:36.047Z,26.80
2023-03-01T03:15:40.922Z,29.20
2023-03-01T03:16:50.507Z,27.52
2023-03-01T03:17:57.136Z,27.10
2023-03-01T03:19:06.103Z,27.20
2023-03-01T03:20:13.523Z,27.25
2023-03-01T03:21:16.309Z,26.05
2023-03-01T03:22:20.093Z,29.00
2023-03-01T03:23:28.562Z,26.40
2023-03-01T03:24:39.316Z,26.90
2023-03-01T03:25:42.133Z,28.20
2023-03-01T03:26:45.961Z,25.80
2023-03-01T03:27:54.209Z,27.17
2023-03-01T03:28:55.990Z,27.40
2023-03-01T03:30:00.558Z,25.48
2023-03-01T03:31:06.410Z,27.58
2023-03-01T03:32:10.049Z,27.98
2023-03-01T03:33:13.925Z,28.55
2023-03-01T03:34:21.687Z,27.27
2023-03-01T03:35:32.425Z,27.05
2023-03-01T03:36:35.876Z,28.80
2023-03-01T03:38:02.456Z,27.60
2023-03-01T03:39:04.429Z,26.38
2023-03-01T03:40:16.799Z,28.45
2023-03-01T03:41:21.398Z,27.85
2023-03-01T03:42:23.691Z,27.17
2023-03-01T03:43:27.598Z,26.90
2023-03-01T03:44:39.378Z,26.95
2023-03-01T03:45:49.112Z,28.27
2023-03-01T03:46:53.230Z,28.52
2023-03-01T03:47:57.027Z,26.00
2023-03-01T03:48:59.156Z,25.90
2023-03-01T03:50:02.284Z,27.40
2023-03-01T03:51:06.872Z,26.30
2023-03-01T03:52:14.753Z,28.00
2023-03-01T03:53:16.989Z,25.88
2023-03-01T03:54:20.317Z,26.90
2023-03-01T03:55:22.887Z,27.60
2023-03-01T03:56:28.607Z,26.75
2023-03-01T03:57:30.961Z,27.17
2023-03-01T03:58:34.709Z,26.73
2023-03-01T03:59:36.550Z,26.85
2023-03-01T04:00:42.797Z,26.40
2023-03-01T04:01:46.278Z,27.70
2023-03-01T04:02:49.817Z,25.98
2023-03-01T04:03:55.617Z,28.83
2023-03-01T04:04:58.531Z,28.75
2023-03-01T04:06:02.062Z,28.85
2023-03-01T04:07:04.315Z,28.83
2023-03-01T04:08:08.812Z,28.95
2023-03-01T04:09:10.930Z,28.20
2023-03-01T04:10:17.762Z,26.40
2023-03-01T04:11:29.889Z,27.30
2023-03-01T04:12:31.969Z,28.23
2023-03-01T04:13:33.845Z,28.08
2023-03-01T04:14:37.485Z,25.92
2023-03-01T04:15:40.279Z,28.63
2023-03-01T04:16:43.958Z,26.85
2023-03-01T04:17:48.306Z,27.38
2023-03-01T04:18:50.271Z,28.13
2023-03-01T04:19:53.241Z,25.30
2023-03-01T04:20:56.748Z,26.00
2023-03-01T04:21:58.643Z,28.23
2023-03-01T04:23:14.505Z,26.52
2023-03-01T04:24:17.927Z,27.83
2023-03-01T04:25:21.056Z,27.98
2023-03-01T04:26:22.976Z,26.95
2023-03-01T04:27:25.095Z,28.10
2023-03-01T04:28:37.857Z,28.25
2023-03-01T04:29:42.048Z,29.52
2023-03-01T04:30:46.699Z,29.40
2023-03-01T04:31:55.156Z,30.52
2023-03-01T04:33:01.771Z,29.95
2023-03-01T04:34:04.117Z,30.98
2023-03-01T04:35:06.139Z,27.30
2023-03-01T04:36:10.705Z,28.73
2023-03-01T04:37:12.716Z,30.35
2023-03-01T04:38:19.344Z,31.20
2023-03-01T04:39:38.500Z,29.63
2023-03-01T04:40:43.571Z,30.90
2023-03-01T04:41:47.957Z,31.30
2023-03-01T04:42:52.257Z,30.15
2023-03-01T04:43:54.117Z,29.90
2023-03-01T04:44:57.886Z,29.55
2023-03-01T04:46:09.528Z,29.33
2023-03-01T04:47:18.195Z,30.85
2023-03-01T04:48:28.117Z,32.35
2023-03-01T04:49:30.357Z,30.02
2023-03-01T04:50:33.714Z,31.10
2023-03-01T04:51:36.749Z,31.73
2023-03-01T04:52:42.154Z,30.70
2023-03-01T04:53:46.400Z,30.27
2023-03-01T04:54:50.077Z,31.75
2023-03-01T04:55:53.040Z,32.40
2023-03-01T04:56:56.403Z,32.53
2023-03-01T04:58:00.698Z,29.05
2023-03-01T04:59:07.713Z,30.08
2023-03-01T05:00:21.693Z,29.65
2023-03-01T05:01:24.750Z,31.48
2023-03-01T05:02:26.868Z,29.30
2023-03-01T05:03:29.571Z,30.52
2023-03-01T05:04:32.173Z,29.15
2023-03-01T05:05:40.352Z,29.35
2023-03-01T05:06:42.373Z,29.23
2023-03-01T05:07:44.429Z,29.55
2023-03-01T05:08:46.793Z,30.50
2023-03-01T05:09:49.574Z,31.60
2023-03-01T05:10:54.116Z,31.20
2023-03-01T05:11:58.905Z,30.48
2023-03-01T05:13:01.381Z,32.72
2023-03-01T05:14:05.221Z,32.55
2023-03-01T05:15:08.178Z,30.50
2023-03-01T05:16:13.085Z,28.30
2023-03-01T05:17:15.132Z,40.25
2023-03-01T05:18:17.273Z,36.92
2023-03-01T05:19:23.789Z,34.38
2023-03-01T05:20:28.666Z,32.05
2023-03-01T05:21:30.315Z,43.15
2023-03-01T05:22:32.285Z,32.50
2023-03-01T05:23:37.777Z,31.50
2023-03-01T05:24:39.989Z,33.58
2023-03-01T05:25:41.965Z,29.92
2023-03-01T05:26:48.304Z,30.20
2023-03-01T05:27:50.026Z,31.90
2023-03-01T05:28:52.907Z,30.15
2023-03-01T05:29:54.964Z,31.60
2023-03-01T05:30:58.923Z,31.15
2023-03-01T05:32:02.475Z,31.23
2023-03-01T05:33:14.644Z,31.23
2023-03-01T05:34:17.108Z,31.70
2023-03-01T05:35:19.241Z,31.48
2023-03-01T05:36:21.270Z,36.15
2023-03-01T05:37:23.249Z,34.08
2023-03-01T05:38:27.639Z,32.60
2023-03-01T05:39:30.830Z,32.10
2023-03-01T05:40:34.942Z,31.13
2023-03-01T05:41:38.677Z,32.33
2023-03-01T05:42:42.550Z,30.58
2023-03-01T05:43:48.366Z,33.53
2023-03-01T05:44:51.847Z,32.15
2023-03-01T05:45:54.815Z,29.55
2023-03-01T05:46:58.019Z,30.85
2023-03-01T05:48:00.892Z,28.88
2023-03-01T05:49:03.663Z,34.90
2023-03-01T05:50:09.700Z,30.77
2023-03-01T05:51:13.418Z,29.38
2023-03-01T05:52:16.020Z,29.65
2023-03-01T05:53:25.390Z,31.05
2023-03-01T05:54:28.304Z,30.98
2023-03-01T05:55:32.230Z,29.92
2023-03-01T05:56:36.806Z,31.20
2023-03-01T05:57:39.026Z,33.85
2023-03-01T05:58:41.026Z,61.95
2023-03-01T05:59:42.738Z,44.40
2023-03-01T06:00:47.256Z,60.80
2023-03-01T06:01:50.351Z,38.60
2023-03-01T06:02:52.969Z,32.35
2023-03-01T06:03:55.139Z,30.88
2023-03-01T06:04:57.571Z,30.30
2023-03-01T06:06:02.532Z,31.15
2023-03-01T06:07:04.932Z,32.60
2023-03-01T06:08:08.198Z,31.02
2023-03-01T06:09:10.895Z,31.50
2023-03-01T06:10:14.367Z,31.38
2023-03-01T06:11:16.724Z,31.27
2023-03-01T06:12:20.204Z,30.60
2023-03-01T06:13:23.987Z,31.35
2023-03-01T06:14:26.170Z,30.48
2023-03-01T06:15:32.362Z,31.05
2023-03-01T06:16:35.033Z,30.60
2023-03-01T06:17:39.526Z,32.88
2023-03-01T06:18:43.258Z,32.42
2023-03-01T06:19:46.518Z,29.75
2023-03-01T06:20:55.719Z,30.05
2023-03-01T06:21:59.159Z,30.35
2023-03-01T06:23:01.531Z,29.52
2023-03-01T06:24:03.582Z,28.08
2023-03-01T06:25:07.245Z,28.45
2023-03-01T06:26:09.798Z,30.00
2023-03-01T06:27:11.683Z,28.42
2023-03-01T06:28:14.077Z,28.60
2023-03-01T06:29:16.341Z,29.83
2023-03-01T06:30:21.935Z,28.90
2023-03-01T06:31:24.273Z,30.00
2023-03-01T06:32:27.250Z,29.48
2023-03-01T06:33:29.941Z,30.05
2023-03-01T06:34:32.752Z,28.73
2023-03-01T06:35:38.141Z,28.48
2023-03-01T06:36:41.999Z,29.92
2023-03-01T06:37:45.131Z,30.75
2023-03-01T06:38:47.329Z,29.77
2023-03-01T06:39:52.331Z,32.70
2023-03-01T06:40:58.369Z,29.48
2023-03-01T06:42:03.872Z,28.60
2023-03-01T06:43:07.464Z,31.02
2023-03-01T06:44:09.506Z,31.10
2023-03-01T06:45:12.214Z,29.48
2023-03-01T06:46:15.045Z,29.75
2023-03-01T06:47:16.898Z,27.73
2023-03-01T06:48:19.435Z,29.13
2023-03-01T06:49:22.605Z,30.90
2023-03-01T06:50:25.063Z,28.80
2023-03-01T06:51:27.037Z,30.55
2023-03-01T06:52:29.228Z,29.05
2023-03-01T06:53:31.083Z,29.15
2023-03-01T06:54:32.804Z,28.55
2023-03-01T06:55:34.934Z,29.10
2023-03-01T06:56:38.312Z,28.88
2023-03-01T06:57:41.911Z,29.42
2023-03-01T06:58:44.196Z,28.77
2023-03-01T06:59:46.354Z,28.55
2023-03-01T07:00:48.746Z,28.35
2023-03-01T07:01:50.565Z,28.67
2023-03-01T07:02:52.769Z,30.45
2023-03-01T07:03:55.120Z,30.33
2023-03-01T07:04:57.760Z,26.70
2023-03-01T07:06:00.222Z,28.60
2023-03-01T07:07:02.545Z,27.65
2023-03-01T07:08:04.598Z,28.65
2023-03-01T07:09:06.896Z,28.58
2023-03-01T07:10:09.946Z,28.88
2023-03-01T07:11:12.431Z,27.88
2023-03-01T07:12:16.837Z,27.02
2023-03-01T07:13:18.733Z,26.75
2023-03-01T07:14:20.889Z,27.50
2023-03-01T07:15:26.259Z,29.13
2023-03-01T07:16:28.400Z,27.58
2023-03-01T07:17:30.560Z,29.67
2023-03-01T07:18:32.271Z,28.70
2023-03-01T07:19:34.397Z,28.38
2023-03-01T07:20:36.494Z,28.00
2023-03-01T07:21:40.505Z,28.55
2023-03-01T07:22:45.735Z,25.00
2023-03-01T07:23:52.260Z,26.58
2023-03-01T07:24:53.995Z,27.65
2023-03-01T07:25:56.080Z,28.17
2023-03-01T07:26:57.856Z,26.90
2023-03-01T07:28:00.862Z,26.02
2023-03-01T07:29:04.831Z,26.52
2023-03-01T07:30:09.669Z,25.48
2023-03-01T07:31:11.343Z,24.85
2023-03-01T07:32:13.299Z,23.30
2023-03-01T07:33:15.018Z,24.88
2023-03-01T07:34:16.970Z,24.27
2023-03-01T07:35:22.221Z,22.10
2023-03-01T07:36:25.846Z,22.73
2023-03-01T07:37:30.967Z,21.83
2023-03-01T07:38:37.689Z,19.92
2023-03-01T07:39:43.213Z,20.88
2023-03-01T07:40:47.866Z,22.05
2023-03-01T07:41:50.411Z,20.50
2023-03-01T07:42:58.948Z,20.45
2023-03-01T07:44:00.713Z,20.45
2023-03-01T07:45:07.322Z,20.92
2023-03-01T07:46:10.860Z,20.40
2023-03-01T07:47:12.781Z,21.92
2023-03-01T07:48:14.783Z,23.00
2023-03-01T07:49:17.493Z,22.05
2023-03-01T07:50:20.167Z,21.50
2023-03-01T07:51:22.317Z,22.15
2023-03-01T07:52:24.126Z,18.98
2023-03-01T07:53:26.527Z,19.98
2023-03-01T07:54:28.433Z,19.50
2023-03-01T07:55:30.426Z,20.63
2023-03-01T07:56:32.478Z,20.90
2023-03-01T07:57:34.163Z,20.35
2023-03-01T07:58:38.386Z,21.30
2023-03-01T07:59:40.469Z,22.13
2023-03-01T08:00:43.829Z,22.08
2023-03-01T08:01:46.178Z,20.98
2023-03-01T08:02:48.664Z,21.20
2023-03-01T08:03:56.900Z,22.20
2023-03-01T08:05:00.626Z,22.83
2023-03-01T08:06:04.373Z,22.00
2023-03-01T08:07:07.728Z,21.60
2023-03-01T08:08:09.823Z,20.50
2023-03-01T08:09:11.650Z,19.90
2023-03-01T08:10:14.022Z,21.48
2023-03-01T08:11:16.843Z,22.65
2023-03-01T08:12:18.808Z,20.90
2023-03-01T08:13:23.781Z,21.42
2023-03-01T08:14:25.611Z,22.15
2023-03-01T08:15:27.501Z,20.98
2023-03-01T08:16:30.512Z,21.23
2023-03-01T08:17:32.758Z,20.70
2023-03-01T08:18:35.982Z,20.65
2023-03-01T08:19:38.625Z,19.60
2023-03-01T08:20:40.371Z,19.92
2023-03-01T08:21:42.256Z,20.60
2023-03-01T08:22:46.318Z,22.38
2023-03-01T08:23:57.122Z,21.73
2023-03-01T08:25:04.050Z,20.73
2023-03-01T08:26:14.195Z,20.45
2023-03-01T08:28:09.518Z,21.73
2023-03-01T08:29:11.337Z,20.10
2023-03-01T08:30:17.445Z,20.13
2023-03-01T08:31:26.722Z,21.38
2023-03-01T08:32:28.661Z,21.25
2023-03-01T08:33:31.290Z,20.75
2023-03-01T08:34:36.575Z,20.77
2023-03-01T08:35:40.290Z,22.52
2023-03-01T08:36:47.700Z,21.38
2023-03-01T08:37:49.585Z,21.55
2023-03-01T08:38:52.496Z,21.70
2023-03-01T08:39:55.880Z,20.88
2023-03-01T08:41:01.335Z,22.02
2023-03-01T08:42:03.734Z,22.45
2023-03-01T08:43:06.221Z,22.30
2023-03-01T08:44:12.740Z,22.90
2023-03-01T08:45:19.224Z,20.48
2023-03-01T08:46:21.194Z,21.33
2023-03-01T08:47:23.470Z,21.90
2023-03-01T08:48:29.988Z,20.75
2023-03-01T08:49:33.854Z,20.40
2023-03-01T08:50:36.414Z,21.67
2023-03-01T08:51:41.965Z,20.40
2023-03-01T08:52:46.930Z,20.97
2023-03-01T08:53:56.098Z,20.57
2023-03-01T08:54:58.529Z,19.70
2023-03-01T08:56:05.374Z,19.63
2023-03-01T08:57:08.627Z,21.10
2023-03-01T08:58:10.411Z,21.47
2023-03-01T08:59:15.494Z,20.70
2023-03-01T09:00:19.572Z,20.77
2023-03-01T09:01:22.163Z,21.60
2023-03-01T09:02:24.885Z,21.97
2023-03-01T09:03:30.012Z,27.63
2023-03-01T09:04:32.364Z,21.33
2023-03-01T09:05:35.404Z,20.53
2023-03-01T09:06:37.945Z,22.33
2023-03-01T09:07:39.953Z,20.40
2023-03-01T09:08:47.721Z,19.40
2023-03-01T09:09:49.869Z,19.93
2023-03-01T09:10:52.289Z,20.67
2023-03-01T09:11:54.074Z,20.90
2023-03-01T09:12:56.674Z,19.63
2023-03-01T09:13:59.329Z,19.70
2023-03-01T09:15:02.522Z,18.97
2023-03-01T09:16:12.883Z,20.60
2023-03-01T09:17:16.099Z,20.83
2023-03-01T09:18:17.879Z,20.33
2023-03-01T09:19:20.548Z,21.87
2023-03-01T09:20:22.899Z,19.77
2023-03-01T09:21:38.949Z,19.17
2023-03-01T09:22:42.212Z,22.20
2023-03-01T09:23:46.731Z,20.23
2023-03-01T09:24:49.413Z,21.50
2023-03-01T09:25:51.562Z,20.97
2023-03-01T09:26:57.816Z,20.07
2023-03-01T09:27:59.378Z,19.57
2023-03-01T09:29:01.141Z,20.40
2023-03-01T09:30:04.351Z,21.00
2023-03-01T09:31:11.354Z,18.73
2023-03-01T09:32:16.773Z,20.90
2023-03-01T09:33:21.771Z,19.13
2023-03-01T09:34:24.945Z,20.20
2023-03-01T09:35:26.894Z,21.30
2023-03-01T09:36:30.158Z,20.27
2023-03-01T09:37:34.915Z,19.80
2023-03-01T09:38:40.442Z,19.13
2023-03-01T09:39:45.678Z,19.67
2023-03-01T09:40:49.357Z,20.47
2023-03-01T09:42:06.759Z,20.50
2023-03-01T09:43:20.272Z,19.13
2023-03-01T09:44:36.206Z,19.87
2023-03-01T09:45:46.039Z,21.20
2023-03-01T09:46:52.520Z,19.90
2023-03-01T09:47:56.904Z,21.00
2023-03-01T09:49:06.982Z,20.10
2023-03-01T09:50:19.832Z,19.93
2023-03-01T09:51:32.467Z,23.53
2023-03-01T09:52:50.293Z,21.50
2023-03-01T09:53:56.107Z,22.20
2023-03-01T09:55:00.385Z,19.10
2023-03-01T09:56:22.907Z,19.10
2023-03-01T09:57:54.729Z,17.60
2023-03-01T10:00:51.679Z,18.80
2023-03-01T10:02:13.421Z,19.60
2023-03-01T10:03:30.232Z,21.27
2023-03-01T10:04:47.986Z,20.40
2023-03-01T10:06:27.504Z,22.00
2023-03-01T10:08:08.009Z,21.63
2023-03-01T10:09:19.457Z,20.17
2023-03-01T10:10:44.608Z,21.40
2023-03-01T10:11:53.758Z,20.90
2023-03-01T10:12:57.425Z,21.20
2023-03-01T10:14:31.608Z,18.90
2023-03-01T10:15:43.969Z,20.10
2023-03-01T10:17:02.286Z,20.03
2023-03-01T10:18:20.069Z,20.93
2023-03-01T10:19:32.144Z,21.20
2023-03-01T10:21:18.437Z,22.00
2023-03-01T10:22:32.451Z,21.60
2023-03-01T10:23:38.221Z,21.60
2023-03-01T10:24:43.059Z,21.63
2023-03-01T10:26:22.426Z,20.70
2023-03-01T10:27:26.115Z,22.67
2023-03-01T10:28:50.644Z,21.73
2023-03-01T10:29:59.349Z,22.17
2023-03-01T10:31:02.125Z,23.17
2023-03-01T10:32:08.548Z,23.30
2023-03-01T10:33:23.127Z,22.63
2023-03-01T10:34:40.705Z,22.20
2023-03-01T10:35:43.624Z,23.57
2023-03-01T10:36:52.076Z,23.40
2023-03-01T10:38:04.479Z,23.10
2023-03-01T10:39:15.931Z,23.20
2023-03-01T10:40:23.338Z,23.67
2023-03-01T10:41:28.547Z,23.97
2023-03-01T10:42:36.624Z,23.23
2023-03-01T10:43:47.713Z,24.37
2023-03-01T10:44:51.387Z,25.00
2023-03-01T10:45:54.229Z,27.20
2023-03-01T10:47:03.978Z,26.50
2023-03-01T10:48:07.337Z,25.63
2023-03-01T10:49:22.256Z,25.20
2023-03-01T10:50:29.684Z,26.20
2023-03-01T10:51:35.643Z,25.73
2023-03-01T10:52:41.415Z,24.70
2023-03-01T10:53:50.664Z,23.33
2023-03-01T10:55:02.941Z,24.03
2023-03-01T10:56:12.116Z,23.70
2023-03-01T10:57:31.340Z,21.87
2023-03-01T10:58:38.887Z,24.87
2023-03-01T10:59:42.155Z,24.77
2023-03-01T11:00:55.217Z,23.53
2023-03-01T11:02:25.447Z,23.50
2023-03-01T11:03:39.990Z,23.67
2023-03-01T11:05:01.628Z,22.73
2023-03-01T11:06:06.008Z,21.60
2023-03-01T11:07:11.230Z,22.80
2023-03-01T11:08:34.391Z,25.63
2023-03-01T11:09:42.190Z,23.43
2023-03-01T11:10:47.675Z,24.40
2023-03-01T11:11:58.124Z,23.77
2023-03-01T11:13:20.729Z,23.30
2023-03-01T11:14:28.398Z,23.13
2023-03-01T11:15:31.915Z,22.93
2023-03-01T11:16:38.484Z,22.27
2023-03-01T11:17:53.869Z,23.50
2023-03-01T11:19:10.989Z,24.80
2023-03-01T11:20:17.549Z,24.90
2023-03-01T11:21:20.779Z,22.90
2023-03-01T11:22:27.177Z,25.10
2023-03-01T11:23:34.759Z,24.23
2023-03-01T11:24:45.091Z,22.90
2023-03-01T11:25:55.991Z,23.57
2023-03-01T11:27:01.457Z,24.60
2023-03-01T11:28:06.210Z,25.00
2023-03-01T11:29:22.660Z,23.97
2023-03-01T11:30:35.179Z,22.77
2023-03-01T11:31:56.765Z,22.40
2023-03-01T11:33:22.508Z,23.83
2023-03-01T11:35:06.789Z,23.70
2023-03-01T11:36:31.435Z,22.50
2023-03-01T11:37:57.463Z,22.73
2023-03-01T11:39:15.276Z,23.47
2023-03-01T11:40:23.221Z,21.07
2023-03-01T11:41:33.232Z,23.27
2023-03-01T11:42:56.076Z,23.80
2023-03-01T11:44:14.624Z,24.20
2023-03-01T11:45:18.303Z,26.27
2023-03-01T11:46:41.289Z,22.63
2023-03-01T11:48:21.724Z,22.23
2023-03-01T11:49:46.057Z,22.43
2023-03-01T11:50:54.480Z,24.40
2023-03-01T11:52:23.359Z,23.37
2023-03-01T11:53:46.093Z,22.37
2023-03-01T11:54:51.167Z,24.00
2023-03-01T11:56:18.672Z,24.53
2023-03-01T11:58:15.022Z,23.17
2023-03-01T11:59:57.111Z,23.07
2023-03-01T12:01:22.311Z,22.40
2023-03-01T12:02:53.887Z,22.60
2023-03-01T12:04:03.970Z,24.50
2023-03-01T12:05:40.973Z,25.10
2023-03-01T12:06:58.200Z,24.17
2023-03-01T12:08:27.742Z,22.17
2023-03-01T12:09:58.906Z,22.83
2023-03-01T12:11:40.688Z,23.70
2023-03-01T12:13:11.716Z,22.60
2023-03-01T12:14:30.498Z,23.33
2023-03-01T12:16:01.481Z,22.20
2023-03-01T12:17:29.723Z,23.60
2023-03-01T12:18:50.892Z,22.00
2023-03-01T12:20:20.044Z,21.07
2023-03-01T12:21:32.400Z,22.80
2023-03-01T12:22:44.369Z,21.40
2023-03-01T12:24:08.951Z,23.17
2023-03-01T12:25:22.775Z,23.83
2023-03-01T12:26:42.621Z,23.23
2023-03-01T12:28:11.048Z,21.63
2023-03-01T12:29:16.126Z,22.30
2023-03-01T12:30:31.272Z,23.40
2023-03-01T12:32:01.360Z,23.60
2023-03-01T12:33:24.990Z,21.60
2023-03-01T12:34:33.295Z,23.03
2023-03-01T12:35:43.514Z,23.03
2023-03-01T12:37:42.488Z,21.27
2023-03-01T12:39:01.142Z,22.30
2023-03-01T12:40:13.991Z,23.10
2023-03-01T12:41:45.423Z,22.60
2023-03-01T12:42:54.123Z,22.10
2023-03-01T12:43:56.315Z,23.43
2023-03-01T12:45:24.890Z,23.27
2023-03-01T12:46:55.519Z,21.33
2023-03-01T12:48:06.466Z,19.30
2023-03-01T12:49:30.911Z,23.00
2023-03-01T12:50:47.286Z,21.53
2023-03-01T12:52:17.042Z,21.80
2023-03-01T12:53:39.946Z,22.63
2023-03-01T12:54:42.874Z,23.47
2023-03-01T12:55:49.781Z,21.57
2023-03-01T12:56:54.620Z,22.03
2023-03-01T12:58:18.323Z,23.17
2023-03-01T12:59:21.386Z,24.93
2023-03-01T13:00:39.237Z,22.67
2023-03-01T13:02:16.160Z,23.73
2023-03-01T13:03:27.378Z,26.40
2023-03-01T13:05:07.006Z,22.53
2023-03-01T13:06:47.894Z,22.03
2023-03-01T13:08:04.187Z,21.73
2023-03-01T13:09:33.437Z,23.53
2023-03-01T13:10:42.948Z,22.43
2023-03-01T13:11:45.059Z,22.27
2023-03-01T13:12:49.949Z,23.20
2023-03-01T13:14:24.515Z,21.83
2023-03-01T13:15:48.796Z,22.90
2023-03-01T13:16:56.115Z,23.13
2023-03-01T13:18:01.688Z,23.47
2023-03-01T13:19:16.608Z,22.53
2023-03-01T13:20:21.518Z,23.40
2023-03-01T13:21:40.671Z,22.60
2023-03-01T13:22:54.345Z,24.93
2023-03-01T13:23:58.365Z,23.60
2023-03-01T13:25:18.429Z,27.40
2023-03-01T13:26:23.908Z,26.27
2023-03-01T13:27:32.692Z,20.80
2023-03-01T13:28:50.152Z,22.60
2023-03-01T13:30:07.133Z,22.93
2023-03-01T13:31:30.869Z,23.07
2023-03-01T13:32:44.654Z,22.90
2023-03-01T13:33:56.471Z,24.60
2023-03-01T13:35:00.839Z,23.60
2023-03-01T13:36:06.281Z,25.73
2023-03-01T13:37:19.627Z,23.10
2023-03-01T13:38:48.444Z,24.07
2023-03-01T13:39:51.675Z,23.63
2023-03-01T13:41:01.769Z,22.63
2023-03-01T13:42:10.578Z,23.60
2023-03-01T13:43:38.608Z,23.27
2023-03-01T13:44:45.044Z,27.17
2023-03-01T13:45:54.087Z,23.20
2023-03-01T13:47:08.214Z,20.90
2023-03-01T13:48:29.155Z,23.40
2023-03-01T13:49:46.600Z,22.90
2023-03-01T13:50:56.491Z,22.93
2023-03-01T13:51:59.604Z,21.70
2023-03-01T13:53:15.615Z,22.60
2023-03-01T13:54:39.862Z,21.87
2023-03-01T13:55:52.978Z,21.70
2023-03-01T13:56:56.552Z,23.63
2023-03-01T13:58:03.780Z,22.83
2023-03-01T13:59:21.105Z,22.03
2023-03-01T14:00:33.009Z,23.13
2023-03-01T14:01:41.672Z,21.93
2023-03-01T14:02:56.001Z,23.43
2023-03-01T14:04:19.410Z,22.63
2023-03-01T14:05:25.001Z,23.17
2023-03-01T14:06:33.577Z,25.07
2023-03-01T14:07:38.000Z,23.40
2023-03-01T14:08:41.463Z,25.83
2023-03-01T14:09:46.759Z,24.50
2023-03-01T14:11:09.160Z,22.90
2023-03-01T14:12:23.413Z,24.03
2023-03-01T14:13:28.403Z,24.63
2023-03-01T14:14:48.488Z,23.37
2023-03-01T14:16:34.531Z,25.90
2023-03-01T14:17:56.730Z,25.40
2023-03-01T14:19:33.510Z,22.47
2023-03-01T14:20:47.097Z,24.57
2023-03-01T14:21:50.762Z,23.10
2023-03-01T14:23:01.297Z,23.60
2023-03-01T14:24:04.705Z,23.47
2023-03-01T14:25:26.067Z,23.47
2023-03-01T14:26:33.076Z,23.27
2023-03-01T14:27:41.078Z,24.77
2023-03-01T14:28:45.020Z,24.30
2023-03-01T14:30:02.885Z,23.47
2023-03-01T14:31:05.061Z,22.97
2023-03-01T14:32:18.448Z,22.53
2023-03-01T14:33:45.382Z,22.70
2023-03-01T14:34:52.566Z,23.77
2023-03-01T14:36:08.768Z,23.00
2023-03-01T14:37:23.589Z,24.77
2023-03-01T14:38:46.691Z,24.63
2023-03-01T14:39:50.129Z,23.27
2023-03-01T14:41:01.969Z,25.03
2023-03-01T14:42:15.423Z,23.30
2023-03-01T14:43:31.086Z,25.20
2023-03-01T14:44:38.720Z,25.33
2023-03-01T14:45:40.851Z,24.83
2023-03-01T14:46:47.300Z,23.77